sensor_id;sensor_type;location;lat;lon;timestamp;P1;durP1;ratioP1;P2;durP2;ratioP2
25972;SDS011;13765;51.166;4.466;2023-07-13T00:00:41;11.02;;;2.60;;
25972;SDS011;13765;51.166;4.466;2023-07-13T00:03:07;9.25;;;2.30;;
25972;SDS011;13765;51.166;4.466;2023-07-13T00:05:35;12.32;;;3.63;;
25972;SDS011;13765;51.166;4.466;2023-07-13T00:08:01;12.70;;;2.42;;
25972;SDS011;13765;51.166;4.466;2023-07-13T00:10:26;15.70;;;2.72;;
25972;SDS011;13765;51.166;4.466;2023-07-13T00:12:52;13.30;;;3.30;;
25972;SDS011;13765;51.166;4.466;2023-07-13T00:15:21;10.40;;;2.30;;
25972;SDS011;13765;51.166;4.466;2023-07-13T00:17:49;11.98;;;2.33;;
25972;SDS011;13765;51.166;4.466;2023-07-13T00:20:15;11.75;;;3.05;;
25972;SDS011;13765;51.166;4.466;2023-07-13T00:22:42;15.57;;;2.65;;
25972;SDS011;13765;51.166;4.466;2023-07-13T00:25:10;10.70;;;2.35;;
25972;SDS011;13765;51.166;4.466;2023-07-13T00:27:37;11.77;;;2.83;;
25972;SDS011;13765;51.166;4.466;2023-07-13T00:30:05;14.25;;;2.53;;
25972;SDS011;13765;51.166;4.466;2023-07-13T00:32:34;6.25;;;2.20;;
25972;SDS011;13765;51.166;4.466;2023-07-13T00:35:00;15.57;;;2.70;;
25972;SDS011;13765;51.166;4.466;2023-07-13T00:37:26;11.48;;;2.58;;
25972;SDS011;13765;51.166;4.466;2023-07-13T00:39:52;8.98;;;2.35;;
25972;SDS011;13765;51.166;4.466;2023-07-13T00:42:17;11.05;;;2.55;;
25972;SDS011;13765;51.166;4.466;2023-07-13T00:47:33;9.65;;;2.70;;
25972;SDS011;13765;51.166;4.466;2023-07-13T00:49:58;7.70;;;2.40;;
25972;SDS011;13765;51.166;4.466;2023-07-13T00:52:25;9.13;;;2.40;;
25972;SDS011;13765;51.166;4.466;2023-07-13T00:54:54;16.95;;;2.95;;
25972;SDS011;13765;51.166;4.466;2023-07-13T00:57:20;11.68;;;2.72;;
25972;SDS011;13765;51.166;4.466;2023-07-13T00:59:51;7.55;;;2.28;;
25972;SDS011;13765;51.166;4.466;2023-07-13T01:02:21;15.90;;;2.90;;
25972;SDS011;13765;51.166;4.466;2023-07-13T01:04:48;7.85;;;2.45;;
25972;SDS011;13765;51.166;4.466;2023-07-13T01:07:14;15.48;;;3.00;;
25972;SDS011;13765;51.166;4.466;2023-07-13T01:09:40;13.63;;;3.00;;
25972;SDS011;13765;51.166;4.466;2023-07-13T01:12:06;15.70;;;2.72;;
25972;SDS011;13765;51.166;4.466;2023-07-13T01:14:32;15.65;;;2.88;;
25972;SDS011;13765;51.166;4.466;2023-07-13T01:16:58;12.38;;;2.78;;
25972;SDS011;13765;51.166;4.466;2023-07-13T01:22:04;14.85;;;2.97;;
25972;SDS011;13765;51.166;4.466;2023-07-13T01:24:43;16.23;;;3.58;;
25972;SDS011;13765;51.166;4.466;2023-07-13T01:27:11;16.02;;;4.10;;
25972;SDS011;13765;51.166;4.466;2023-07-13T01:29:40;13.18;;;3.03;;
25972;SDS011;13765;51.166;4.466;2023-07-13T01:32:16;17.35;;;3.22;;
25972;SDS011;13765;51.166;4.466;2023-07-13T01:34:49;13.90;;;2.92;;
25972;SDS011;13765;51.166;4.466;2023-07-13T01:37:21;15.10;;;3.25;;
25972;SDS011;13765;51.166;4.466;2023-07-13T01:39:48;12.93;;;3.03;;
25972;SDS011;13765;51.166;4.466;2023-07-13T01:42:14;12.40;;;2.47;;
25972;SDS011;13765;51.166;4.466;2023-07-13T01:44:42;13.45;;;2.60;;
25972;SDS011;13765;51.166;4.466;2023-07-13T01:47:10;13.32;;;3.05;;
25972;SDS011;13765;51.166;4.466;2023-07-13T01:49:36;9.32;;;3.28;;
25972;SDS011;13765;51.166;4.466;2023-07-13T01:52:05;18.70;;;3.80;;
25972;SDS011;13765;51.166;4.466;2023-07-13T01:54:31;13.73;;;3.00;;
25972;SDS011;13765;51.166;4.466;2023-07-13T01:56:58;15.30;;;2.95;;
25972;SDS011;13765;51.166;4.466;2023-07-13T01:59:24;17.88;;;3.50;;
25972;SDS011;13765;51.166;4.466;2023-07-13T02:01:50;12.55;;;3.05;;
25972;SDS011;13765;51.166;4.466;2023-07-13T02:04:18;18.35;;;3.08;;
25972;SDS011;13765;51.166;4.466;2023-07-13T02:06:44;20.40;;;3.65;;
25972;SDS011;13765;51.166;4.466;2023-07-13T02:09:09;16.75;;;3.00;;
25972;SDS011;13765;51.166;4.466;2023-07-13T02:11:37;23.27;;;3.85;;
25972;SDS011;13765;51.166;4.466;2023-07-13T02:14:03;17.63;;;3.25;;
25972;SDS011;13765;51.166;4.466;2023-07-13T02:16:30;13.60;;;3.35;;
25972;SDS011;13765;51.166;4.466;2023-07-13T02:18:56;22.35;;;3.90;;
25972;SDS011;13765;51.166;4.466;2023-07-13T02:21:25;17.77;;;3.22;;
25972;SDS011;13765;51.166;4.466;2023-07-13T02:23:51;17.30;;;4.20;;
25972;SDS011;13765;51.166;4.466;2023-07-13T02:26:19;15.00;;;3.40;;
25972;SDS011;13765;51.166;4.466;2023-07-13T02:28:47;20.17;;;3.30;;
25972;SDS011;13765;51.166;4.466;2023-07-13T02:31:14;15.02;;;3.67;;
25972;SDS011;13765;51.166;4.466;2023-07-13T02:33:43;14.23;;;3.58;;
25972;SDS011;13765;51.166;4.466;2023-07-13T02:36:08;14.52;;;3.50;;
25972;SDS011;13765;51.166;4.466;2023-07-13T02:38:37;15.60;;;3.25;;
25972;SDS011;13765;51.166;4.466;2023-07-13T02:41:03;12.55;;;2.83;;
25972;SDS011;13765;51.166;4.466;2023-07-13T02:43:33;17.50;;;3.70;;
25972;SDS011;13765;51.166;4.466;2023-07-13T02:46:02;14.60;;;4.07;;
25972;SDS011;13765;51.166;4.466;2023-07-13T02:48:35;14.10;;;2.78;;
25972;SDS011;13765;51.166;4.466;2023-07-13T02:51:05;14.98;;;3.47;;
25972;SDS011;13765;51.166;4.466;2023-07-13T02:53:32;15.98;;;3.55;;
25972;SDS011;13765;51.166;4.466;2023-07-13T02:55:58;16.92;;;3.55;;
25972;SDS011;13765;51.166;4.466;2023-07-13T02:58:24;16.48;;;3.03;;
25972;SDS011;13765;51.166;4.466;2023-07-13T03:00:52;11.27;;;3.10;;
25972;SDS011;13765;51.166;4.466;2023-07-13T03:03:23;19.90;;;3.60;;
25972;SDS011;13765;51.166;4.466;2023-07-13T03:05:58;11.07;;;3.00;;
25972;SDS011;13765;51.166;4.466;2023-07-13T03:08:27;20.23;;;3.60;;
25972;SDS011;13765;51.166;4.466;2023-07-13T03:10:59;18.33;;;3.08;;
25972;SDS011;13765;51.166;4.466;2023-07-13T03:13:28;19.20;;;3.40;;
25972;SDS011;13765;51.166;4.466;2023-07-13T03:15:54;13.18;;;3.00;;
25972;SDS011;13765;51.166;4.466;2023-07-13T03:18:19;22.17;;;4.53;;
25972;SDS011;13765;51.166;4.466;2023-07-13T03:20:45;17.95;;;3.80;;
25972;SDS011;13765;51.166;4.466;2023-07-13T03:23:13;15.60;;;3.80;;
25972;SDS011;13765;51.166;4.466;2023-07-13T03:25:38;16.17;;;3.83;;
25972;SDS011;13765;51.166;4.466;2023-07-13T03:28:07;18.67;;;3.70;;
25972;SDS011;13765;51.166;4.466;2023-07-13T03:30:32;18.85;;;3.85;;
25972;SDS011;13765;51.166;4.466;2023-07-13T03:33:00;16.95;;;3.65;;
25972;SDS011;13765;51.166;4.466;2023-07-13T03:35:28;19.25;;;3.70;;
25972;SDS011;13765;51.166;4.466;2023-07-13T03:37:54;18.52;;;4.15;;
25972;SDS011;13765;51.166;4.466;2023-07-13T03:40:20;18.48;;;3.90;;
25972;SDS011;13765;51.166;4.466;2023-07-13T03:42:48;17.00;;;3.83;;
25972;SDS011;13765;51.166;4.466;2023-07-13T03:45:14;13.77;;;3.38;;
25972;SDS011;13765;51.166;4.466;2023-07-13T03:47:42;27.42;;;4.55;;
25972;SDS011;13765;51.166;4.466;2023-07-13T03:50:07;20.50;;;4.10;;
25972;SDS011;13765;51.166;4.466;2023-07-13T03:52:36;26.60;;;4.40;;
25972;SDS011;13765;51.166;4.466;2023-07-13T03:55:02;18.67;;;4.60;;
25972;SDS011;13765;51.166;4.466;2023-07-13T03:57:28;24.98;;;5.50;;
25972;SDS011;13765;51.166;4.466;2023-07-13T03:59:53;24.98;;;4.63;;
25972;SDS011;13765;51.166;4.466;2023-07-13T04:02:19;21.65;;;5.07;;
25972;SDS011;13765;51.166;4.466;2023-07-13T04:04:45;24.58;;;4.72;;
25972;SDS011;13765;51.166;4.466;2023-07-13T04:07:11;21.40;;;4.63;;
25972;SDS011;13765;51.166;4.466;2023-07-13T04:09:37;19.75;;;4.97;;
25972;SDS011;13765;51.166;4.466;2023-07-13T04:12:03;21.67;;;4.20;;
25972;SDS011;13765;51.166;4.466;2023-07-13T04:14:30;20.92;;;4.55;;
25972;SDS011;13765;51.166;4.466;2023-07-13T04:16:58;18.42;;;4.53;;
25972;SDS011;13765;51.166;4.466;2023-07-13T04:19:23;18.20;;;3.95;;
25972;SDS011;13765;51.166;4.466;2023-07-13T04:21:53;26.90;;;4.55;;
25972;SDS011;13765;51.166;4.466;2023-07-13T04:24:21;20.05;;;3.42;;
25972;SDS011;13765;51.166;4.466;2023-07-13T04:26:46;24.73;;;5.13;;
25972;SDS011;13765;51.166;4.466;2023-07-13T04:29:12;22.83;;;4.38;;
25972;SDS011;13765;51.166;4.466;2023-07-13T04:31:38;15.75;;;3.65;;
25972;SDS011;13765;51.166;4.466;2023-07-13T04:34:06;22.95;;;4.85;;
25972;SDS011;13765;51.166;4.466;2023-07-13T04:36:32;18.80;;;3.75;;
25972;SDS011;13765;51.166;4.466;2023-07-13T04:38:58;18.33;;;4.05;;
25972;SDS011;13765;51.166;4.466;2023-07-13T04:41:23;22.92;;;4.43;;
25972;SDS011;13765;51.166;4.466;2023-07-13T04:43:49;22.13;;;4.15;;
25972;SDS011;13765;51.166;4.466;2023-07-13T04:46:15;16.15;;;4.20;;
25972;SDS011;13765;51.166;4.466;2023-07-13T04:48:45;16.42;;;4.00;;
25972;SDS011;13765;51.166;4.466;2023-07-13T04:51:13;20.52;;;5.57;;
25972;SDS011;13765;51.166;4.466;2023-07-13T04:53:41;17.35;;;4.00;;
25972;SDS011;13765;51.166;4.466;2023-07-13T04:56:06;21.00;;;4.40;;
25972;SDS011;13765;51.166;4.466;2023-07-13T04:58:35;16.27;;;4.60;;
25972;SDS011;13765;51.166;4.466;2023-07-13T05:01:03;21.23;;;4.03;;
25972;SDS011;13765;51.166;4.466;2023-07-13T05:03:33;12.60;;;3.22;;
25972;SDS011;13765;51.166;4.466;2023-07-13T05:06:00;15.23;;;3.88;;
25972;SDS011;13765;51.166;4.466;2023-07-13T05:08:28;22.05;;;4.03;;
25972;SDS011;13765;51.166;4.466;2023-07-13T05:10:54;18.73;;;4.50;;
25972;SDS011;13765;51.166;4.466;2023-07-13T05:13:20;17.08;;;4.15;;
25972;SDS011;13765;51.166;4.466;2023-07-13T05:15:52;15.75;;;3.60;;
25972;SDS011;13765;51.166;4.466;2023-07-13T05:18:24;17.17;;;4.72;;
25972;SDS011;13765;51.166;4.466;2023-07-13T05:21:09;17.83;;;4.13;;
25972;SDS011;13765;51.166;4.466;2023-07-13T05:23:35;12.25;;;3.58;;
25972;SDS011;13765;51.166;4.466;2023-07-13T05:26:02;15.93;;;4.68;;
25972;SDS011;13765;51.166;4.466;2023-07-13T05:28:29;27.80;;;4.78;;
25972;SDS011;13765;51.166;4.466;2023-07-13T05:30:56;25.23;;;4.93;;
25972;SDS011;13765;51.166;4.466;2023-07-13T05:33:23;16.70;;;4.13;;
25972;SDS011;13765;51.166;4.466;2023-07-13T05:35:52;20.20;;;3.60;;
25972;SDS011;13765;51.166;4.466;2023-07-13T05:38:17;19.55;;;3.95;;
25972;SDS011;13765;51.166;4.466;2023-07-13T05:40:46;24.85;;;4.45;;
25972;SDS011;13765;51.166;4.466;2023-07-13T05:43:12;19.73;;;3.88;;
25972;SDS011;13765;51.166;4.466;2023-07-13T05:45:39;16.60;;;3.40;;
25972;SDS011;13765;51.166;4.466;2023-07-13T05:48:05;14.55;;;3.85;;
25972;SDS011;13765;51.166;4.466;2023-07-13T05:50:30;14.98;;;3.83;;
25972;SDS011;13765;51.166;4.466;2023-07-13T05:52:56;18.58;;;4.03;;
25972;SDS011;13765;51.166;4.466;2023-07-13T05:55:22;19.33;;;3.88;;
25972;SDS011;13765;51.166;4.466;2023-07-13T05:57:48;16.88;;;4.03;;
25972;SDS011;13765;51.166;4.466;2023-07-13T06:00:13;21.67;;;3.92;;
25972;SDS011;13765;51.166;4.466;2023-07-13T06:02:40;18.23;;;3.88;;
25972;SDS011;13765;51.166;4.466;2023-07-13T06:05:05;18.10;;;4.20;;
25972;SDS011;13765;51.166;4.466;2023-07-13T06:07:31;15.13;;;4.28;;
25972;SDS011;13765;51.166;4.466;2023-07-13T06:09:57;23.67;;;4.10;;
25972;SDS011;13765;51.166;4.466;2023-07-13T06:12:24;17.40;;;4.47;;
25972;SDS011;13765;51.166;4.466;2023-07-13T06:14:50;22.85;;;4.85;;
25972;SDS011;13765;51.166;4.466;2023-07-13T06:17:16;18.55;;;4.00;;
25972;SDS011;13765;51.166;4.466;2023-07-13T06:19:42;16.48;;;4.18;;
25972;SDS011;13765;51.166;4.466;2023-07-13T06:22:07;23.85;;;5.68;;
25972;SDS011;13765;51.166;4.466;2023-07-13T06:27:01;19.40;;;4.18;;
25972;SDS011;13765;51.166;4.466;2023-07-13T06:29:29;18.58;;;4.00;;
25972;SDS011;13765;51.166;4.466;2023-07-13T06:31:57;19.17;;;4.22;;
25972;SDS011;13765;51.166;4.466;2023-07-13T06:34:25;16.42;;;3.97;;
25972;SDS011;13765;51.166;4.466;2023-07-13T06:36:53;18.58;;;3.78;;
25972;SDS011;13765;51.166;4.466;2023-07-13T06:39:18;17.48;;;4.15;;
25972;SDS011;13765;51.166;4.466;2023-07-13T06:41:46;19.67;;;4.43;;
25972;SDS011;13765;51.166;4.466;2023-07-13T06:44:14;20.15;;;4.00;;
25972;SDS011;13765;51.166;4.466;2023-07-13T06:46:40;16.67;;;4.40;;
25972;SDS011;13765;51.166;4.466;2023-07-13T06:49:08;22.85;;;4.85;;
25972;SDS011;13765;51.166;4.466;2023-07-13T06:51:34;22.73;;;5.00;;
25972;SDS011;13765;51.166;4.466;2023-07-13T06:54:02;16.90;;;3.65;;
25972;SDS011;13765;51.166;4.466;2023-07-13T06:56:28;18.40;;;4.88;;
25972;SDS011;13765;51.166;4.466;2023-07-13T06:58:54;18.10;;;4.10;;
25972;SDS011;13765;51.166;4.466;2023-07-13T07:01:19;25.63;;;4.47;;
25972;SDS011;13765;51.166;4.466;2023-07-13T07:03:47;21.58;;;5.15;;
25972;SDS011;13765;51.166;4.466;2023-07-13T07:06:17;20.85;;;4.72;;
25972;SDS011;13765;51.166;4.466;2023-07-13T07:08:45;20.52;;;4.93;;
25972;SDS011;13765;51.166;4.466;2023-07-13T07:11:19;18.25;;;4.60;;
25972;SDS011;13765;51.166;4.466;2023-07-13T07:13:52;19.20;;;4.30;;
25972;SDS011;13765;51.166;4.466;2023-07-13T07:16:18;20.23;;;4.13;;
25972;SDS011;13765;51.166;4.466;2023-07-13T07:18:45;17.20;;;3.65;;
25972;SDS011;13765;51.166;4.466;2023-07-13T07:21:11;15.63;;;3.55;;
25972;SDS011;13765;51.166;4.466;2023-07-13T07:23:38;17.20;;;4.30;;
25972;SDS011;13765;51.166;4.466;2023-07-13T07:26:04;21.17;;;4.45;;
25972;SDS011;13765;51.166;4.466;2023-07-13T07:28:37;17.80;;;4.03;;
25972;SDS011;13765;51.166;4.466;2023-07-13T07:31:03;13.77;;;3.38;;
25972;SDS011;13765;51.166;4.466;2023-07-13T07:33:32;15.57;;;4.03;;
25972;SDS011;13765;51.166;4.466;2023-07-13T07:36:01;21.15;;;4.50;;
25972;SDS011;13765;51.166;4.466;2023-07-13T07:38:28;17.63;;;4.22;;
25972;SDS011;13765;51.166;4.466;2023-07-13T07:40:56;17.50;;;4.22;;
25972;SDS011;13765;51.166;4.466;2023-07-13T07:43:22;21.42;;;4.53;;
25972;SDS011;13765;51.166;4.466;2023-07-13T07:45:48;15.18;;;3.60;;
25972;SDS011;13765;51.166;4.466;2023-07-13T07:48:15;16.92;;;4.15;;
25972;SDS011;13765;51.166;4.466;2023-07-13T07:50:43;19.27;;;4.30;;
25972;SDS011;13765;51.166;4.466;2023-07-13T07:53:10;17.48;;;4.15;;
25972;SDS011;13765;51.166;4.466;2023-07-13T07:55:35;18.88;;;4.25;;
25972;SDS011;13765;51.166;4.466;2023-07-13T07:58:01;14.85;;;3.42;;
25972;SDS011;13765;51.166;4.466;2023-07-13T08:00:27;16.88;;;3.78;;
25972;SDS011;13765;51.166;4.466;2023-07-13T08:02:56;15.73;;;4.30;;
25972;SDS011;13765;51.166;4.466;2023-07-13T08:05:25;13.73;;;3.65;;
25972;SDS011;13765;51.166;4.466;2023-07-13T08:07:53;18.90;;;3.42;;
25972;SDS011;13765;51.166;4.466;2023-07-13T08:10:19;10.98;;;3.08;;
25972;SDS011;13765;51.166;4.466;2023-07-13T08:12:45;18.05;;;3.95;;
25972;SDS011;13765;51.166;4.466;2023-07-13T08:15:15;14.85;;;4.00;;
25972;SDS011;13765;51.166;4.466;2023-07-13T08:17:42;18.42;;;3.63;;
25972;SDS011;13765;51.166;4.466;2023-07-13T08:20:08;14.07;;;3.33;;
25972;SDS011;13765;51.166;4.466;2023-07-13T08:22:37;13.75;;;3.47;;
25972;SDS011;13765;51.166;4.466;2023-07-13T08:25:02;18.33;;;4.05;;
25972;SDS011;13765;51.166;4.466;2023-07-13T08:27:28;16.58;;;3.58;;
25972;SDS011;13765;51.166;4.466;2023-07-13T08:29:57;15.70;;;3.47;;
25972;SDS011;13765;51.166;4.466;2023-07-13T08:32:23;16.15;;;3.40;;
25972;SDS011;13765;51.166;4.466;2023-07-13T08:34:49;17.27;;;4.07;;
25972;SDS011;13765;51.166;4.466;2023-07-13T08:37:18;15.82;;;3.60;;
25972;SDS011;13765;51.166;4.466;2023-07-13T08:39:44;13.18;;;3.45;;
25972;SDS011;13765;51.166;4.466;2023-07-13T08:42:27;16.42;;;3.47;;
25972;SDS011;13765;51.166;4.466;2023-07-13T08:47:51;12.10;;;3.60;;
25972;SDS011;13765;51.166;4.466;2023-07-13T08:50:30;16.08;;;3.95;;
25972;SDS011;13765;51.166;4.466;2023-07-13T08:53:02;9.02;;;2.78;;
25972;SDS011;13765;51.166;4.466;2023-07-13T08:55:30;13.95;;;3.20;;
25972;SDS011;13765;51.166;4.466;2023-07-13T08:58:13;11.95;;;2.83;;
25972;SDS011;13765;51.166;4.466;2023-07-13T09:03:12;11.10;;;2.88;;
25972;SDS011;13765;51.166;4.466;2023-07-13T09:05:45;9.82;;;2.33;;
25972;SDS011;13765;51.166;4.466;2023-07-13T09:16:54;9.50;;;2.67;;
25972;SDS011;13765;51.166;4.466;2023-07-13T09:19:25;9.23;;;2.60;;
25972;SDS011;13765;51.166;4.466;2023-07-13T09:21:57;10.32;;;2.80;;
25972;SDS011;13765;51.166;4.466;2023-07-13T09:27:13;18.27;;;3.30;;
25972;SDS011;13765;51.166;4.466;2023-07-13T09:29:45;12.85;;;3.08;;
25972;SDS011;13765;51.166;4.466;2023-07-13T09:32:14;11.73;;;3.67;;
25972;SDS011;13765;51.166;4.466;2023-07-13T09:34:53;10.93;;;2.47;;
25972;SDS011;13765;51.166;4.466;2023-07-13T09:37:22;15.27;;;2.90;;
25972;SDS011;13765;51.166;4.466;2023-07-13T09:39:53;15.03;;;3.13;;
25972;SDS011;13765;51.166;4.466;2023-07-13T09:42:22;13.13;;;3.08;;
25972;SDS011;13765;51.166;4.466;2023-07-13T09:44:58;11.90;;;3.15;;
25972;SDS011;13765;51.166;4.466;2023-07-13T09:47:28;13.68;;;3.72;;
25972;SDS011;13765;51.166;4.466;2023-07-13T09:50:14;10.35;;;2.65;;
25972;SDS011;13765;51.166;4.466;2023-07-13T09:52:46;17.20;;;3.97;;
25972;SDS011;13765;51.166;4.466;2023-07-13T09:58:10;15.13;;;3.60;;
25972;SDS011;13765;51.166;4.466;2023-07-13T10:00:40;10.75;;;2.67;;
25972;SDS011;13765;51.166;4.466;2023-07-13T10:05:46;9.85;;;2.80;;
25972;SDS011;13765;51.166;4.466;2023-07-13T10:08:21;14.95;;;3.08;;
25972;SDS011;13765;51.166;4.466;2023-07-13T10:13:55;11.60;;;3.03;;
25972;SDS011;13765;51.166;4.466;2023-07-13T10:16:31;10.88;;;3.60;;
25972;SDS011;13765;51.166;4.466;2023-07-13T10:22:00;10.50;;;3.13;;
25972;SDS011;13765;51.166;4.466;2023-07-13T10:24:33;9.80;;;2.97;;
25972;SDS011;13765;51.166;4.466;2023-07-13T10:32:25;9.20;;;2.35;;
25972;SDS011;13765;51.166;4.466;2023-07-13T10:34:51;11.25;;;2.95;;
25972;SDS011;13765;51.166;4.466;2023-07-13T10:37:27;11.52;;;2.70;;
25972;SDS011;13765;51.166;4.466;2023-07-13T10:40:16;8.60;;;2.95;;
25972;SDS011;13765;51.166;4.466;2023-07-13T10:42:49;9.68;;;2.35;;
25972;SDS011;13765;51.166;4.466;2023-07-13T10:45:18;13.52;;;2.60;;
25972;SDS011;13765;51.166;4.466;2023-07-13T10:47:48;9.10;;;2.60;;
25972;SDS011;13765;51.166;4.466;2023-07-13T10:50:25;9.35;;;2.30;;
25972;SDS011;13765;51.166;4.466;2023-07-13T10:53:01;11.13;;;2.60;;
25972;SDS011;13765;51.166;4.466;2023-07-13T11:00:50;8.18;;;2.45;;
25972;SDS011;13765;51.166;4.466;2023-07-13T11:03:20;10.07;;;2.42;;
25972;SDS011;13765;51.166;4.466;2023-07-13T11:05:49;13.45;;;2.50;;
25972;SDS011;13765;51.166;4.466;2023-07-13T11:08:37;10.43;;;2.47;;
25972;SDS011;13765;51.166;4.466;2023-07-13T11:18:44;8.20;;;2.40;;
25972;SDS011;13765;51.166;4.466;2023-07-13T11:21:18;5.07;;;1.92;;
25972;SDS011;13765;51.166;4.466;2023-07-13T11:23:51;7.45;;;2.30;;
25972;SDS011;13765;51.166;4.466;2023-07-13T11:29:27;6.93;;;2.20;;
25972;SDS011;13765;51.166;4.466;2023-07-13T11:32:00;10.02;;;2.40;;
25972;SDS011;13765;51.166;4.466;2023-07-13T11:34:46;8.90;;;2.50;;
25972;SDS011;13765;51.166;4.466;2023-07-13T11:37:12;12.73;;;3.60;;
25972;SDS011;13765;51.166;4.466;2023-07-13T11:39:45;11.90;;;3.13;;
25972;SDS011;13765;51.166;4.466;2023-07-13T11:42:13;10.15;;;2.88;;
25972;SDS011;13765;51.166;4.466;2023-07-13T11:44:48;9.27;;;2.95;;
25972;SDS011;13765;51.166;4.466;2023-07-13T11:47:21;12.35;;;3.38;;
25972;SDS011;13765;51.166;4.466;2023-07-13T11:49:52;12.77;;;3.70;;
25972;SDS011;13765;51.166;4.466;2023-07-13T11:52:22;12.63;;;3.80;;
25972;SDS011;13765;51.166;4.466;2023-07-13T11:54:53;14.40;;;4.25;;
25972;SDS011;13765;51.166;4.466;2023-07-13T11:57:23;14.88;;;4.80;;
25972;SDS011;13765;51.166;4.466;2023-07-13T12:00:02;15.82;;;5.47;;
25972;SDS011;13765;51.166;4.466;2023-07-13T12:02:33;16.02;;;4.97;;
25972;SDS011;13765;51.166;4.466;2023-07-13T12:05:05;17.33;;;5.47;;
25972;SDS011;13765;51.166;4.466;2023-07-13T12:07:37;14.10;;;4.30;;
25972;SDS011;13765;51.166;4.466;2023-07-13T12:10:25;15.40;;;4.45;;
25972;SDS011;13765;51.166;4.466;2023-07-13T12:13:02;12.70;;;4.47;;
25972;SDS011;13765;51.166;4.466;2023-07-13T12:15:41;11.25;;;3.85;;
25972;SDS011;13765;51.166;4.466;2023-07-13T12:18:20;15.02;;;4.18;;
25972;SDS011;13765;51.166;4.466;2023-07-13T12:20:58;15.02;;;3.88;;
25972;SDS011;13765;51.166;4.466;2023-07-13T12:25:58;12.02;;;3.47;;
25972;SDS011;13765;51.166;4.466;2023-07-13T12:28:36;8.07;;;3.15;;
25972;SDS011;13765;51.166;4.466;2023-07-13T12:34:12;10.82;;;3.55;;
25972;SDS011;13765;51.166;4.466;2023-07-13T12:41:51;11.05;;;3.10;;
25972;SDS011;13765;51.166;4.466;2023-07-13T12:44:24;13.25;;;3.55;;
25972;SDS011;13765;51.166;4.466;2023-07-13T12:46:57;13.85;;;3.85;;
25972;SDS011;13765;51.166;4.466;2023-07-13T12:49:40;13.02;;;3.70;;
25972;SDS011;13765;51.166;4.466;2023-07-13T12:52:22;17.25;;;4.00;;
25972;SDS011;13765;51.166;4.466;2023-07-13T12:54:57;11.05;;;2.90;;
25972;SDS011;13765;51.166;4.466;2023-07-13T12:57:28;7.40;;;2.92;;
25972;SDS011;13765;51.166;4.466;2023-07-13T12:59:53;12.02;;;3.15;;
25972;SDS011;13765;51.166;4.466;2023-07-13T13:02:30;8.93;;;2.85;;
25972;SDS011;13765;51.166;4.466;2023-07-13T13:05:03;8.45;;;2.45;;
25972;SDS011;13765;51.166;4.466;2023-07-13T13:07:30;9.90;;;2.65;;
25972;SDS011;13765;51.166;4.466;2023-07-13T13:09:59;7.80;;;2.42;;
25972;SDS011;13765;51.166;4.466;2023-07-13T13:12:24;7.07;;;2.42;;
25972;SDS011;13765;51.166;4.466;2023-07-13T13:14:52;11.10;;;2.60;;
25972;SDS011;13765;51.166;4.466;2023-07-13T13:17:22;7.85;;;3.15;;
25972;SDS011;13765;51.166;4.466;2023-07-13T13:19:52;16.70;;;3.47;;
25972;SDS011;13765;51.166;4.466;2023-07-13T13:22:22;9.52;;;2.67;;
25972;SDS011;13765;51.166;4.466;2023-07-13T13:24:47;9.02;;;2.60;;
25972;SDS011;13765;51.166;4.466;2023-07-13T13:27:21;7.70;;;2.40;;
25972;SDS011;13765;51.166;4.466;2023-07-13T13:29:48;8.85;;;2.40;;
25972;SDS011;13765;51.166;4.466;2023-07-13T13:32:16;8.70;;;2.50;;
25972;SDS011;13765;51.166;4.466;2023-07-13T13:34:45;9.32;;;2.90;;
25972;SDS011;13765;51.166;4.466;2023-07-13T13:37:20;5.60;;;2.40;;
25972;SDS011;13765;51.166;4.466;2023-07-13T13:39:50;7.63;;;2.95;;
25972;SDS011;13765;51.166;4.466;2023-07-13T13:42:18;9.38;;;2.35;;
25972;SDS011;13765;51.166;4.466;2023-07-13T13:44:46;8.95;;;2.80;;
25972;SDS011;13765;51.166;4.466;2023-07-13T13:47:30;10.20;;;2.70;;
25972;SDS011;13765;51.166;4.466;2023-07-13T13:49:59;7.50;;;2.28;;
25972;SDS011;13765;51.166;4.466;2023-07-13T13:52:30;9.23;;;2.38;;
25972;SDS011;13765;51.166;4.466;2023-07-13T13:54:57;9.63;;;2.50;;
25972;SDS011;13765;51.166;4.466;2023-07-13T13:57:23;8.50;;;2.70;;
25972;SDS011;13765;51.166;4.466;2023-07-13T13:59:51;7.18;;;2.33;;
25972;SDS011;13765;51.166;4.466;2023-07-13T14:02:27;8.25;;;2.20;;
25972;SDS011;13765;51.166;4.466;2023-07-13T14:05:02;9.85;;;2.95;;
25972;SDS011;13765;51.166;4.466;2023-07-13T14:07:28;10.25;;;2.83;;
25972;SDS011;13765;51.166;4.466;2023-07-13T14:09:58;12.73;;;3.08;;
25972;SDS011;13765;51.166;4.466;2023-07-13T14:12:25;13.07;;;2.75;;
25972;SDS011;13765;51.166;4.466;2023-07-13T14:14:54;8.60;;;3.05;;
25972;SDS011;13765;51.166;4.466;2023-07-13T14:17:24;8.00;;;2.28;;
25972;SDS011;13765;51.166;4.466;2023-07-13T14:19:52;4.22;;;2.13;;
25972;SDS011;13765;51.166;4.466;2023-07-13T14:22:24;8.85;;;2.13;;
25972;SDS011;13765;51.166;4.466;2023-07-13T14:24:53;10.07;;;2.97;;
25972;SDS011;13765;51.166;4.466;2023-07-13T14:27:23;9.25;;;2.40;;
25972;SDS011;13765;51.166;4.466;2023-07-13T14:29:52;11.27;;;2.85;;
25972;SDS011;13765;51.166;4.466;2023-07-13T14:32:17;7.93;;;2.83;;
25972;SDS011;13765;51.166;4.466;2023-07-13T14:34:45;12.13;;;2.55;;
25972;SDS011;13765;51.166;4.466;2023-07-13T14:37:14;8.52;;;2.33;;
25972;SDS011;13765;51.166;4.466;2023-07-13T14:39:43;12.20;;;3.50;;
25972;SDS011;13765;51.166;4.466;2023-07-13T14:42:13;8.75;;;2.47;;
25972;SDS011;13765;51.166;4.466;2023-07-13T14:44:39;6.55;;;2.35;;
25972;SDS011;13765;51.166;4.466;2023-07-13T14:47:09;7.28;;;2.00;;
25972;SDS011;13765;51.166;4.466;2023-07-13T14:49:41;9.90;;;2.15;;
25972;SDS011;13765;51.166;4.466;2023-07-13T14:54:42;9.00;;;2.50;;
25972;SDS011;13765;51.166;4.466;2023-07-13T14:57:14;6.25;;;2.10;;
25972;SDS011;13765;51.166;4.466;2023-07-13T14:59:42;7.53;;;2.35;;
25972;SDS011;13765;51.166;4.466;2023-07-13T15:04:57;7.70;;;2.38;;
25972;SDS011;13765;51.166;4.466;2023-07-13T15:07:23;7.30;;;2.30;;
25972;SDS011;13765;51.166;4.466;2023-07-13T15:09:52;10.60;;;2.45;;
25972;SDS011;13765;51.166;4.466;2023-07-13T15:12:22;10.45;;;2.60;;
25972;SDS011;13765;51.166;4.466;2023-07-13T15:14:50;6.38;;;2.38;;
25972;SDS011;13765;51.166;4.466;2023-07-13T15:20:11;6.70;;;2.28;;
25972;SDS011;13765;51.166;4.466;2023-07-13T15:22:48;11.75;;;3.03;;
25972;SDS011;13765;51.166;4.466;2023-07-13T15:25:20;10.07;;;2.75;;
25972;SDS011;13765;51.166;4.466;2023-07-13T15:27:49;6.90;;;2.30;;
25972;SDS011;13765;51.166;4.466;2023-07-13T15:30:16;9.43;;;2.50;;
25972;SDS011;13765;51.166;4.466;2023-07-13T15:32:42;7.75;;;2.50;;
25972;SDS011;13765;51.166;4.466;2023-07-13T15:35:18;8.15;;;2.50;;
25972;SDS011;13765;51.166;4.466;2023-07-13T15:37:45;6.63;;;2.45;;
25972;SDS011;13765;51.166;4.466;2023-07-13T15:40:15;9.38;;;2.65;;
25972;SDS011;13765;51.166;4.466;2023-07-13T15:42:41;8.63;;;2.92;;
25972;SDS011;13765;51.166;4.466;2023-07-13T15:47:42;10.05;;;2.70;;
25972;SDS011;13765;51.166;4.466;2023-07-13T15:50:21;9.52;;;3.05;;
25972;SDS011;13765;51.166;4.466;2023-07-13T15:52:50;11.07;;;2.80;;
25972;SDS011;13765;51.166;4.466;2023-07-13T15:55:21;5.82;;;1.95;;
25972;SDS011;13765;51.166;4.466;2023-07-13T15:57:50;13.43;;;2.90;;
25972;SDS011;13765;51.166;4.466;2023-07-13T16:02:45;7.95;;;2.55;;
25972;SDS011;13765;51.166;4.466;2023-07-13T16:05:11;10.18;;;2.67;;
25972;SDS011;13765;51.166;4.466;2023-07-13T16:07:37;7.13;;;2.25;;
25972;SDS011;13765;51.166;4.466;2023-07-13T16:10:03;8.75;;;2.45;;